sensor_id;sensor_type;location;lat;lon;timestamp;P1;durP1;ratioP1;P2;durP2;ratioP2
9304;SDS011;4690;52.422;13.486;2023-03-01T00:06:27;33.77;;;27.20;;
9304;SDS011;4690;52.422;13.486;2023-03-01T00:08:53;33.70;;;27.50;;
9304;SDS011;4690;52.422;13.486;2023-03-01T00:11:21;33.63;;;27.03;;
9304;SDS011;4690;52.422;13.486;2023-03-01T00:13:51;35.20;;;27.00;;
9304;SDS011;4690;52.422;13.486;2023-03-01T00:16:22;33.13;;;26.43;;
9304;SDS011;4690;52.422;13.486;2023-03-01T00:18:51;32.53;;;26.43;;
9304;SDS011;4690;52.422;13.486;2023-03-01T00:21:20;35.73;;;27.23;;
9304;SDS011;4690;52.422;13.486;2023-03-01T00:23:47;33.60;;;26.50;;
9304;SDS011;4690;52.422;13.486;2023-03-01T00:26:15;33.90;;;26.77;;
9304;SDS011;4690;52.422;13.486;2023-03-01T00:28:42;34.43;;;26.50;;
9304;SDS011;4690;52.422;13.486;2023-03-01T00:31:13;33.90;;;27.07;;
9304;SDS011;4690;52.422;13.486;2023-03-01T00:33:43;38.50;;;29.63;;
9304;SDS011;4690;52.422;13.486;2023-03-01T00:36:10;36.23;;;29.20;;
9304;SDS011;4690;52.422;13.486;2023-03-01T00:38:40;37.43;;;28.97;;
9304;SDS011;4690;52.422;13.486;2023-03-01T00:41:10;37.00;;;27.73;;
9304;SDS011;4690;52.422;13.486;2023-03-01T00:43:39;35.47;;;26.93;;
9304;SDS011;4690;52.422;13.486;2023-03-01T00:46:07;34.33;;;26.93;;
9304;SDS011;4690;52.422;13.486;2023-03-01T00:48:41;37.57;;;27.70;;
9304;SDS011;4690;52.422;13.486;2023-03-01T00:51:11;37.83;;;29.67;;
9304;SDS011;4690;52.422;13.486;2023-03-01T00:53:52;36.67;;;30.07;;
9304;SDS011;4690;52.422;13.486;2023-03-01T00:56:22;37.00;;;29.30;;
9304;SDS011;4690;52.422;13.486;2023-03-01T00:58:48;38.87;;;30.17;;
9304;SDS011;4690;52.422;13.486;2023-03-01T01:03:49;40.73;;;32.73;;
9304;SDS011;4690;52.422;13.486;2023-03-01T01:06:42;38.23;;;31.33;;
9304;SDS011;4690;52.422;13.486;2023-03-01T01:09:12;36.77;;;29.00;;
9304;SDS011;4690;52.422;13.486;2023-03-01T01:11:42;38.57;;;30.00;;
9304;SDS011;4690;52.422;13.486;2023-03-01T01:14:13;37.60;;;28.80;;
9304;SDS011;4690;52.422;13.486;2023-03-01T01:16:39;34.80;;;27.63;;
9304;SDS011;4690;52.422;13.486;2023-03-01T01:19:05;36.80;;;27.87;;
9304;SDS011;4690;52.422;13.486;2023-03-01T01:21:31;34.10;;;27.43;;
9304;SDS011;4690;52.422;13.486;2023-03-01T01:23:57;36.47;;;27.20;;
9304;SDS011;4690;52.422;13.486;2023-03-01T01:26:25;33.17;;;26.33;;
9304;SDS011;4690;52.422;13.486;2023-03-01T01:28:54;33.00;;;26.77;;
9304;SDS011;4690;52.422;13.486;2023-03-01T01:31:21;34.00;;;26.10;;
9304;SDS011;4690;52.422;13.486;2023-03-01T01:33:49;32.77;;;26.73;;
9304;SDS011;4690;52.422;13.486;2023-03-01T01:36:17;33.27;;;26.10;;
9304;SDS011;4690;52.422;13.486;2023-03-01T01:38:42;35.97;;;27.23;;
9304;SDS011;4690;52.422;13.486;2023-03-01T01:41:09;34.97;;;28.23;;
9304;SDS011;4690;52.422;13.486;2023-03-01T01:43:38;36.20;;;28.20;;
9304;SDS011;4690;52.422;13.486;2023-03-01T01:48:57;36.80;;;28.13;;
9304;SDS011;4690;52.422;13.486;2023-03-01T01:51:30;35.70;;;28.70;;
9304;SDS011;4690;52.422;13.486;2023-03-01T01:54:03;39.00;;;28.70;;
9304;SDS011;4690;52.422;13.486;2023-03-01T01:56:37;40.27;;;29.37;;
9304;SDS011;4690;52.422;13.486;2023-03-01T01:59:08;40.57;;;29.33;;
9304;SDS011;4690;52.422;13.486;2023-03-01T02:01:35;37.50;;;29.07;;
9304;SDS011;4690;52.422;13.486;2023-03-01T02:04:01;38.10;;;29.13;;
9304;SDS011;4690;52.422;13.486;2023-03-01T02:06:39;41.30;;;28.80;;
9304;SDS011;4690;52.422;13.486;2023-03-01T02:09:22;37.07;;;27.67;;
9304;SDS011;4690;52.422;13.486;2023-03-01T02:11:49;38.83;;;30.10;;
9304;SDS011;4690;52.422;13.486;2023-03-01T02:14:17;37.07;;;29.03;;
9304;SDS011;4690;52.422;13.486;2023-03-01T02:16:43;38.27;;;29.47;;
9304;SDS011;4690;52.422;13.486;2023-03-01T02:19:11;41.97;;;28.83;;
9304;SDS011;4690;52.422;13.486;2023-03-01T02:26:57;38.27;;;28.70;;
9304;SDS011;4690;52.422;13.486;2023-03-01T02:29:23;37.27;;;28.73;;
9304;SDS011;4690;52.422;13.486;2023-03-01T02:31:52;35.53;;;29.07;;
9304;SDS011;4690;52.422;13.486;2023-03-01T02:34:22;38.17;;;29.27;;
9304;SDS011;4690;52.422;13.486;2023-03-01T02:36:52;38.03;;;28.53;;
9304;SDS011;4690;52.422;13.486;2023-03-01T02:39:28;38.10;;;28.13;;
9304;SDS011;4690;52.422;13.486;2023-03-01T02:42:07;37.67;;;28.70;;
9304;SDS011;4690;52.422;13.486;2023-03-01T02:44:39;36.83;;;27.60;;
9304;SDS011;4690;52.422;13.486;2023-03-01T02:47:05;33.87;;;26.67;;
9304;SDS011;4690;52.422;13.486;2023-03-01T02:49:32;38.50;;;27.90;;
9304;SDS011;4690;52.422;13.486;2023-03-01T02:52:16;35.93;;;27.10;;
9304;SDS011;4690;52.422;13.486;2023-03-01T02:57:28;39.63;;;27.60;;
9304;SDS011;4690;52.422;13.486;2023-03-01T02:59:56;35.40;;;26.87;;
9304;SDS011;4690;52.422;13.486;2023-03-01T03:02:31;38.47;;;28.10;;
9304;SDS011;4690;52.422;13.486;2023-03-01T03:05:02;38.53;;;27.70;;
9304;SDS011;4690;52.422;13.486;2023-03-01T03:07:35;34.50;;;26.43;;
9304;SDS011;4690;52.422;13.486;2023-03-01T03:10:05;37.50;;;27.10;;
9304;SDS011;4690;52.422;13.486;2023-03-01T03:12:37;36.77;;;27.70;;
9304;SDS011;4690;52.422;13.486;2023-03-01T03:15:04;33.80;;;26.47;;
9304;SDS011;4690;52.422;13.486;2023-03-01T03:17:37;34.90;;;26.33;;
9304;SDS011;4690;52.422;13.486;2023-03-01T03:20:06;37.10;;;28.13;;
9304;SDS011;4690;52.422;13.486;2023-03-01T03:22:39;33.80;;;26.93;;
9304;SDS011;4690;52.422;13.486;2023-03-01T03:25:09;34.67;;;26.43;;
9304;SDS011;4690;52.422;13.486;2023-03-01T03:27:36;35.33;;;26.67;;
9304;SDS011;4690;52.422;13.486;2023-03-01T03:30:03;38.53;;;27.43;;
9304;SDS011;4690;52.422;13.486;2023-03-01T03:32:34;30.47;;;25.47;;
9304;SDS011;4690;52.422;13.486;2023-03-01T03:35:02;33.57;;;24.80;;
9304;SDS011;4690;52.422;13.486;2023-03-01T03:37:35;32.30;;;25.03;;
9304;SDS011;4690;52.422;13.486;2023-03-01T03:40:24;33.13;;;25.47;;
9304;SDS011;4690;52.422;13.486;2023-03-01T03:42:51;30.50;;;24.23;;
9304;SDS011;4690;52.422;13.486;2023-03-01T03:45:17;33.67;;;26.03;;
9304;SDS011;4690;52.422;13.486;2023-03-01T03:47:43;33.13;;;24.70;;
9304;SDS011;4690;52.422;13.486;2023-03-01T03:50:10;35.80;;;25.87;;
9304;SDS011;4690;52.422;13.486;2023-03-01T03:52:37;33.57;;;25.33;;
9304;SDS011;4690;52.422;13.486;2023-03-01T03:55:04;32.53;;;23.80;;
9304;SDS011;4690;52.422;13.486;2023-03-01T03:57:35;35.53;;;25.60;;
9304;SDS011;4690;52.422;13.486;2023-03-01T04:00:03;34.33;;;26.37;;
9304;SDS011;4690;52.422;13.486;2023-03-01T04:02:37;35.87;;;26.07;;
9304;SDS011;4690;52.422;13.486;2023-03-01T04:05:11;35.43;;;25.60;;
9304;SDS011;4690;52.422;13.486;2023-03-01T04:07:40;34.70;;;25.63;;
9304;SDS011;4690;52.422;13.486;2023-03-01T04:10:11;31.70;;;25.13;;
9304;SDS011;4690;52.422;13.486;2023-03-01T04:12:41;31.90;;;25.37;;
9304;SDS011;4690;52.422;13.486;2023-03-01T04:15:08;32.53;;;24.67;;
9304;SDS011;4690;52.422;13.486;2023-03-01T04:17:45;30.23;;;24.73;;
9304;SDS011;4690;52.422;13.486;2023-03-01T04:20:13;31.03;;;23.47;;
9304;SDS011;4690;52.422;13.486;2023-03-01T04:22:58;34.23;;;25.37;;
9304;SDS011;4690;52.422;13.486;2023-03-01T04:25:55;33.50;;;24.90;;
9304;SDS011;4690;52.422;13.486;2023-03-01T04:28:28;29.53;;;23.67;;
9304;SDS011;4690;52.422;13.486;2023-03-01T04:31:09;30.00;;;23.90;;
9304;SDS011;4690;52.422;13.486;2023-03-01T04:33:49;31.97;;;24.33;;
9304;SDS011;4690;52.422;13.486;2023-03-01T04:36:19;32.37;;;24.20;;
9304;SDS011;4690;52.422;13.486;2023-03-01T04:38:53;30.00;;;24.37;;
9304;SDS011;4690;52.422;13.486;2023-03-01T04:41:20;29.80;;;22.67;;
9304;SDS011;4690;52.422;13.486;2023-03-01T04:43:48;29.53;;;21.90;;
9304;SDS011;4690;52.422;13.486;2023-03-01T04:46:15;30.63;;;23.67;;
9304;SDS011;4690;52.422;13.486;2023-03-01T04:48:44;29.80;;;21.97;;
9304;SDS011;4690;52.422;13.486;2023-03-01T04:51:11;30.47;;;22.67;;
9304;SDS011;4690;52.422;13.486;2023-03-01T04:53:41;26.40;;;21.97;;
9304;SDS011;4690;52.422;13.486;2023-03-01T04:56:08;28.20;;;22.80;;
9304;SDS011;4690;52.422;13.486;2023-03-01T04:58:34;30.00;;;24.13;;
9304;SDS011;4690;52.422;13.486;2023-03-01T05:01:00;32.67;;;24.83;;
9304;SDS011;4690;52.422;13.486;2023-03-01T05:03:26;29.87;;;24.07;;
9304;SDS011;4690;52.422;13.486;2023-03-01T05:05:53;31.80;;;25.60;;
9304;SDS011;4690;52.422;13.486;2023-03-01T05:08:18;29.30;;;23.97;;
9304;SDS011;4690;52.422;13.486;2023-03-01T05:10:46;30.13;;;23.57;;
9304;SDS011;4690;52.422;13.486;2023-03-01T05:13:16;31.30;;;24.83;;
9304;SDS011;4690;52.422;13.486;2023-03-01T05:15:47;28.87;;;23.70;;
9304;SDS011;4690;52.422;13.486;2023-03-01T05:18:26;30.60;;;23.53;;
9304;SDS011;4690;52.422;13.486;2023-03-01T05:20:54;29.10;;;22.63;;
9304;SDS011;4690;52.422;13.486;2023-03-01T05:23:23;32.07;;;24.30;;
9304;SDS011;4690;52.422;13.486;2023-03-01T05:25:50;29.43;;;22.87;;
9304;SDS011;4690;52.422;13.486;2023-03-01T05:28:17;29.80;;;23.57;;
9304;SDS011;4690;52.422;13.486;2023-03-01T05:30:45;30.57;;;25.43;;
9304;SDS011;4690;52.422;13.486;2023-03-01T05:33:11;34.60;;;26.00;;
9304;SDS011;4690;52.422;13.486;2023-03-01T05:35:41;32.35;;;26.25;;
9304;SDS011;4690;52.422;13.486;2023-03-01T05:38:10;33.23;;;26.20;;
9304;SDS011;4690;52.422;13.486;2023-03-01T05:40:44;31.87;;;25.33;;
9304;SDS011;4690;52.422;13.486;2023-03-01T05:43:13;30.83;;;26.40;;
9304;SDS011;4690;52.422;13.486;2023-03-01T05:45:41;33.63;;;26.33;;
9304;SDS011;4690;52.422;13.486;2023-03-01T05:48:09;34.10;;;26.70;;
9304;SDS011;4690;52.422;13.486;2023-03-01T05:50:38;31.87;;;26.23;;
9304;SDS011;4690;52.422;13.486;2023-03-01T05:53:11;36.77;;;27.30;;
9304;SDS011;4690;52.422;13.486;2023-03-01T05:55:43;34.37;;;26.47;;
9304;SDS011;4690;52.422;13.486;2023-03-01T05:58:11;33.37;;;25.80;;
9304;SDS011;4690;52.422;13.486;2023-03-01T06:00:47;33.17;;;26.50;;
9304;SDS011;4690;52.422;13.486;2023-03-01T06:03:14;34.03;;;26.33;;
9304;SDS011;4690;52.422;13.486;2023-03-01T06:05:42;30.23;;;26.27;;
9304;SDS011;4690;52.422;13.486;2023-03-01T06:08:09;32.70;;;26.57;;
9304;SDS011;4690;52.422;13.486;2023-03-01T06:10:36;34.37;;;25.93;;
9304;SDS011;4690;52.422;13.486;2023-03-01T06:13:02;31.53;;;26.50;;
9304;SDS011;4690;52.422;13.486;2023-03-01T06:15:29;33.27;;;27.07;;
9304;SDS011;4690;52.422;13.486;2023-03-01T06:17:55;33.77;;;27.23;;
9304;SDS011;4690;52.422;13.486;2023-03-01T06:20:25;34.23;;;26.37;;
9304;SDS011;4690;52.422;13.486;2023-03-01T06:22:53;31.40;;;26.77;;
9304;SDS011;4690;52.422;13.486;2023-03-01T06:25:21;31.83;;;25.50;;
9304;SDS011;4690;52.422;13.486;2023-03-01T06:27:49;35.63;;;27.63;;
9304;SDS011;4690;52.422;13.486;2023-03-01T06:30:17;33.80;;;25.63;;
9304;SDS011;4690;52.422;13.486;2023-03-01T06:32:45;30.17;;;23.03;;
9304;SDS011;4690;52.422;13.486;2023-03-01T06:35:12;27.97;;;23.77;;
9304;SDS011;4690;52.422;13.486;2023-03-01T06:37:43;28.27;;;24.13;;
9304;SDS011;4690;52.422;13.486;2023-03-01T06:40:10;28.43;;;23.73;;
9304;SDS011;4690;52.422;13.486;2023-03-01T06:42:40;30.27;;;23.90;;
9304;SDS011;4690;52.422;13.486;2023-03-01T06:45:12;31.33;;;25.67;;
9304;SDS011;4690;52.422;13.486;2023-03-01T06:47:38;25.40;;;22.50;;
9304;SDS011;4690;52.422;13.486;2023-03-01T06:50:04;26.07;;;22.13;;
9304;SDS011;4690;52.422;13.486;2023-03-01T06:52:30;26.67;;;23.47;;
9304;SDS011;4690;52.422;13.486;2023-03-01T06:54:56;31.83;;;25.43;;
9304;SDS011;4690;52.422;13.486;2023-03-01T06:57:22;32.17;;;25.77;;
9304;SDS011;4690;52.422;13.486;2023-03-01T06:59:48;30.87;;;25.10;;
9304;SDS011;4690;52.422;13.486;2023-03-01T07:02:14;29.37;;;23.27;;
9304;SDS011;4690;52.422;13.486;2023-03-01T07:04:40;31.03;;;24.07;;
9304;SDS011;4690;52.422;13.486;2023-03-01T07:07:07;28.00;;;24.20;;
9304;SDS011;4690;52.422;13.486;2023-03-01T07:09:33;30.10;;;23.80;;
9304;SDS011;4690;52.422;13.486;2023-03-01T07:11:59;28.03;;;21.47;;
9304;SDS011;4690;52.422;13.486;2023-03-01T07:14:25;27.77;;;23.57;;
9304;SDS011;4690;52.422;13.486;2023-03-01T07:16:51;26.27;;;22.07;;
9304;SDS011;4690;52.422;13.486;2023-03-01T07:19:18;28.17;;;22.57;;
9304;SDS011;4690;52.422;13.486;2023-03-01T07:21:44;27.57;;;23.30;;
9304;SDS011;4690;52.422;13.486;2023-03-01T07:24:10;28.03;;;23.27;;
9304;SDS011;4690;52.422;13.486;2023-03-01T07:26:36;27.50;;;22.27;;
9304;SDS011;4690;52.422;13.486;2023-03-01T07:29:04;25.97;;;21.27;;
9304;SDS011;4690;52.422;13.486;2023-03-01T07:31:34;23.93;;;21.00;;
9304;SDS011;4690;52.422;13.486;2023-03-01T07:34:00;23.77;;;20.73;;
9304;SDS011;4690;52.422;13.486;2023-03-01T07:36:25;25.37;;;20.73;;
9304;SDS011;4690;52.422;13.486;2023-03-01T07:38:52;25.30;;;21.03;;
9304;SDS011;4690;52.422;13.486;2023-03-01T07:41:20;26.23;;;20.37;;
9304;SDS011;4690;52.422;13.486;2023-03-01T07:43:46;24.10;;;19.63;;
9304;SDS011;4690;52.422;13.486;2023-03-01T07:46:12;21.37;;;15.83;;
9304;SDS011;4690;52.422;13.486;2023-03-01T07:48:38;18.93;;;15.53;;
9304;SDS011;4690;52.422;13.486;2023-03-01T07:51:05;21.40;;;16.57;;
9304;SDS011;4690;52.422;13.486;2023-03-01T07:53:32;19.90;;;15.80;;
9304;SDS011;4690;52.422;13.486;2023-03-01T07:56:03;17.87;;;15.63;;
9304;SDS011;4690;52.422;13.486;2023-03-01T07:58:34;20.30;;;16.20;;
9304;SDS011;4690;52.422;13.486;2023-03-01T08:01:05;17.37;;;15.17;;
9304;SDS011;4690;52.422;13.486;2023-03-01T08:03:35;16.87;;;14.50;;
9304;SDS011;4690;52.422;13.486;2023-03-01T08:06:02;17.20;;;14.37;;
9304;SDS011;4690;52.422;13.486;2023-03-01T08:08:30;18.63;;;14.80;;
9304;SDS011;4690;52.422;13.486;2023-03-01T08:10:57;15.80;;;13.30;;
9304;SDS011;4690;52.422;13.486;2023-03-01T08:13:24;17.87;;;14.17;;
9304;SDS011;4690;52.422;13.486;2023-03-01T08:15:50;18.90;;;15.00;;
9304;SDS011;4690;52.422;13.486;2023-03-01T08:18:17;17.80;;;14.70;;
9304;SDS011;4690;52.422;13.486;2023-03-01T08:20:45;20.57;;;14.60;;
9304;SDS011;4690;52.422;13.486;2023-03-01T08:23:12;17.23;;;13.43;;
9304;SDS011;4690;52.422;13.486;2023-03-01T08:25:38;17.13;;;13.23;;
9304;SDS011;4690;52.422;13.486;2023-03-01T08:28:04;14.97;;;12.70;;
9304;SDS011;4690;52.422;13.486;2023-03-01T08:30:31;16.87;;;13.07;;
9304;SDS011;4690;52.422;13.486;2023-03-01T08:32:57;17.43;;;12.20;;
9304;SDS011;4690;52.422;13.486;2023-03-01T08:35:22;20.70;;;13.27;;
9304;SDS011;4690;52.422;13.486;2023-03-01T08:37:48;13.43;;;12.03;;
9304;SDS011;4690;52.422;13.486;2023-03-01T08:40:14;17.60;;;13.53;;
9304;SDS011;4690;52.422;13.486;2023-03-01T08:42:41;17.07;;;13.53;;
9304;SDS011;4690;52.422;13.486;2023-03-01T08:45:11;16.13;;;12.93;;
9304;SDS011;4690;52.422;13.486;2023-03-01T08:47:39;13.73;;;12.00;;
9304;SDS011;4690;52.422;13.486;2023-03-01T08:50:05;14.77;;;12.53;;
9304;SDS011;4690;52.422;13.486;2023-03-01T08:52:31;14.87;;;12.57;;
9304;SDS011;4690;52.422;13.486;2023-03-01T08:54:58;15.43;;;12.10;;
9304;SDS011;4690;52.422;13.486;2023-03-01T08:57:26;16.53;;;12.20;;
9304;SDS011;4690;52.422;13.486;2023-03-01T08:59:52;12.53;;;8.73;;
9304;SDS011;4690;52.422;13.486;2023-03-01T09:02:20;10.57;;;9.37;;
9304;SDS011;4690;52.422;13.486;2023-03-01T09:04:46;11.00;;;9.73;;
9304;SDS011;4690;52.422;13.486;2023-03-01T09:07:12;14.60;;;10.52;;
9304;SDS011;4690;52.422;13.486;2023-03-01T09:09:38;11.23;;;9.53;;
9304;SDS011;4690;52.422;13.486;2023-03-01T09:12:04;12.40;;;9.10;;
9304;SDS011;4690;52.422;13.486;2023-03-01T09:14:30;10.37;;;8.43;;
9304;SDS011;4690;52.422;13.486;2023-03-01T09:16:55;10.77;;;8.47;;
9304;SDS011;4690;52.422;13.486;2023-03-01T09:19:21;12.13;;;8.43;;
9304;SDS011;4690;52.422;13.486;2023-03-01T09:21:47;11.03;;;8.60;;
9304;SDS011;4690;52.422;13.486;2023-03-01T09:24:20;11.67;;;8.30;;
9304;SDS011;4690;52.422;13.486;2023-03-01T09:26:48;10.23;;;8.00;;
9304;SDS011;4690;52.422;13.486;2023-03-01T09:29:15;8.77;;;7.37;;
9304;SDS011;4690;52.422;13.486;2023-03-01T09:31:41;9.67;;;7.50;;
9304;SDS011;4690;52.422;13.486;2023-03-01T09:34:08;11.17;;;7.40;;
9304;SDS011;4690;52.422;13.486;2023-03-01T09:36:34;9.90;;;7.20;;
9304;SDS011;4690;52.422;13.486;2023-03-01T09:39:01;9.73;;;7.20;;
9304;SDS011;4690;52.422;13.486;2023-03-01T09:44:36;9.20;;;7.07;;
9304;SDS011;4690;52.422;13.486;2023-03-01T09:47:40;9.33;;;7.30;;
9304;SDS011;4690;52.422;13.486;2023-03-01T09:50:14;7.97;;;5.90;;
9304;SDS011;4690;52.422;13.486;2023-03-01T10:01:26;6.90;;;6.20;;
9304;SDS011;4690;52.422;13.486;2023-03-01T10:06:38;7.40;;;6.53;;
9304;SDS011;4690;52.422;13.486;2023-03-01T10:09:14;10.53;;;6.90;;
9304;SDS011;4690;52.422;13.486;2023-03-01T10:11:44;7.97;;;6.70;;
9304;SDS011;4690;52.422;13.486;2023-03-01T10:14:18;7.97;;;6.80;;
9304;SDS011;4690;52.422;13.486;2023-03-01T10:17:24;9.23;;;7.40;;
9304;SDS011;4690;52.422;13.486;2023-03-01T10:20:13;10.07;;;7.80;;
9304;SDS011;4690;52.422;13.486;2023-03-01T10:22:58;9.67;;;7.50;;
9304;SDS011;4690;52.422;13.486;2023-03-01T10:25:30;12.00;;;7.73;;
9304;SDS011;4690;52.422;13.486;2023-03-01T10:31:03;12.37;;;7.53;;
9304;SDS011;4690;52.422;13.486;2023-03-01T10:33:34;9.93;;;7.67;;
9304;SDS011;4690;52.422;13.486;2023-03-01T10:36:04;10.53;;;8.17;;
9304;SDS011;4690;52.422;13.486;2023-03-01T10:38:31;9.97;;;7.90;;
9304;SDS011;4690;52.422;13.486;2023-03-01T10:41:20;12.43;;;9.20;;
9304;SDS011;4690;52.422;13.486;2023-03-01T10:43:51;10.43;;;7.97;;
9304;SDS011;4690;52.422;13.486;2023-03-01T10:49:13;10.43;;;7.23;;
9304;SDS011;4690;52.422;13.486;2023-03-01T10:51:49;9.60;;;6.57;;
9304;SDS011;4690;52.422;13.486;2023-03-01T10:54:22;10.53;;;6.60;;
9304;SDS011;4690;52.422;13.486;2023-03-01T10:56:58;9.70;;;6.43;;
9304;SDS011;4690;52.422;13.486;2023-03-01T10:59:29;7.60;;;6.00;;
9304;SDS011;4690;52.422;13.486;2023-03-01T11:05:01;7.73;;;6.17;;
9304;SDS011;4690;52.422;13.486;2023-03-01T11:10:33;7.13;;;5.60;;
9304;SDS011;4690;52.422;13.486;2023-03-01T11:15:40;7.03;;;5.23;;
9304;SDS011;4690;52.422;13.486;2023-03-01T11:18:20;6.00;;;4.87;;
9304;SDS011;4690;52.422;13.486;2023-03-01T11:20:48;7.63;;;5.20;;
9304;SDS011;4690;52.422;13.486;2023-03-01T11:23:20;7.30;;;5.20;;
9304;SDS011;4690;52.422;13.486;2023-03-01T11:25:49;7.83;;;6.00;;
9304;SDS011;4690;52.422;13.486;2023-03-01T11:28:28;8.23;;;6.40;;
9304;SDS011;4690;52.422;13.486;2023-03-01T11:39:32;9.33;;;7.13;;
9304;SDS011;4690;52.422;13.486;2023-03-01T11:42:48;7.82;;;6.25;;
9304;SDS011;4690;52.422;13.486;2023-03-01T11:45:15;8.23;;;6.40;;
9304;SDS011;4690;52.422;13.486;2023-03-01T11:50:51;7.95;;;6.32;;
9304;SDS011;4690;52.422;13.486;2023-03-01T11:56:24;7.47;;;6.05;;
9304;SDS011;4690;52.422;13.486;2023-03-01T12:07:45;11.60;;;4.85;;
9304;SDS011;4690;52.422;13.486;2023-03-01T12:16:28;6.18;;;5.00;;
9304;SDS011;4690;52.422;13.486;2023-03-01T12:19:42;5.85;;;4.75;;
9304;SDS011;4690;52.422;13.486;2023-03-01T12:25:58;11.30;;;4.93;;
9304;SDS011;4690;52.422;13.486;2023-03-01T12:37:01;6.05;;;4.68;;
9304;SDS011;4690;52.422;13.486;2023-03-01T12:51:34;4.05;;;3.53;;
9304;SDS011;4690;52.422;13.486;2023-03-01T12:54:06;12.77;;;11.48;;
9304;SDS011;4690;52.422;13.486;2023-03-01T12:56:40;9.48;;;8.05;;
9304;SDS011;4690;52.422;13.486;2023-03-01T12:59:18;4.80;;;3.70;;
9304;SDS011;4690;52.422;13.486;2023-03-01T13:04:54;4.57;;;4.18;;
9304;SDS011;4690;52.422;13.486;2023-03-01T13:10:55;11.40;;;9.43;;
9304;SDS011;4690;52.422;13.486;2023-03-01T13:13:26;4.18;;;3.78;;
9304;SDS011;4690;52.422;13.486;2023-03-01T13:15:53;7.18;;;5.00;;
9304;SDS011;4690;52.422;13.486;2023-03-01T13:20:49;22.05;;;19.95;;
9304;SDS011;4690;52.422;13.486;2023-03-01T13:31:10;14.20;;;12.20;;
9304;SDS011;4690;52.422;13.486;2023-03-01T13:33:46;3.90;;;3.40;;
9304;SDS011;4690;52.422;13.486;2023-03-01T13:46:48;3.93;;;3.30;;
9304;SDS011;4690;52.422;13.486;2023-03-01T13:49:23;6.70;;;3.37;;
9304;SDS011;4690;52.422;13.486;2023-03-01T13:51:54;4.13;;;3.27;;
9304;SDS011;4690;52.422;13.486;2023-03-01T13:54:25;5.03;;;3.53;;
9304;SDS011;4690;52.422;13.486;2023-03-01T13:56:57;4.77;;;3.43;;
9304;SDS011;4690;52.422;13.486;2023-03-01T13:59:25;4.90;;;3.20;;
9304;SDS011;4690;52.422;13.486;2023-03-01T14:01:55;5.83;;;3.43;;
9304;SDS011;4690;52.422;13.486;2023-03-01T14:04:28;4.47;;;3.10;;
9304;SDS011;4690;52.422;13.486;2023-03-01T14:07:20;4.47;;;3.07;;
9304;SDS011;4690;52.422;13.486;2023-03-01T14:09:52;4.17;;;2.90;;
9304;SDS011;4690;52.422;13.486;2023-03-01T14:15:06;5.47;;;2.80;;
9304;SDS011;4690;52.422;13.486;2023-03-01T14:20:38;3.80;;;2.97;;
9304;SDS011;4690;52.422;13.486;2023-03-01T14:23:11;6.87;;;3.10;;
9304;SDS011;4690;52.422;13.486;2023-03-01T14:25:52;3.50;;;2.80;;
9304;SDS011;4690;52.422;13.486;2023-03-01T14:28:25;3.30;;;3.00;;
9304;SDS011;4690;52.422;13.486;2023-03-01T14:30:59;3.30;;;3.00;;
9304;SDS011;4690;52.422;13.486;2023-03-01T14:33:34;3.53;;;3.20;;
9304;SDS011;4690;52.422;13.486;2023-03-01T14:38:36;3.50;;;3.00;;
9304;SDS011;4690;52.422;13.486;2023-03-01T14:41:10;5.47;;;3.20;;
9304;SDS011;4690;52.422;13.486;2023-03-01T14:43:50;6.17;;;3.20;;
9304;SDS011;4690;52.422;13.486;2023-03-01T14:48:55;5.60;;;3.10;;
9304;SDS011;4690;52.422;13.486;2023-03-01T14:51:48;3.27;;;2.97;;
9304;SDS011;4690;52.422;13.486;2023-03-01T14:54:48;4.40;;;3.00;;
9304;SDS011;4690;52.422;13.486;2023-03-01T14:57:25;3.27;;;2.80;;
9304;SDS011;4690;52.422;13.486;2023-03-01T14:59:55;3.40;;;3.03;;
9304;SDS011;4690;52.422;13.486;2023-03-01T15:02:28;4.10;;;2.43;;
9304;SDS011;4690;52.422;13.486;2023-03-01T15:04:58;2.70;;;2.30;;
9304;SDS011;4690;52.422;13.486;2023-03-01T15:07:30;2.80;;;2.50;;
9304;SDS011;4690;52.422;13.486;2023-03-01T15:10:00;4.43;;;2.67;;
9304;SDS011;4690;52.422;13.486;2023-03-01T15:15:18;3.43;;;3.10;;
9304;SDS011;4690;52.422;13.486;2023-03-01T15:18:01;3.80;;;3.40;;
9304;SDS011;4690;52.422;13.486;2023-03-01T15:20:40;3.50;;;2.90;;
9304;SDS011;4690;52.422;13.486;2023-03-01T15:23:12;7.07;;;3.00;;
9304;SDS011;4690;52.422;13.486;2023-03-01T15:25:55;2.93;;;2.67;;
9304;SDS011;4690;52.422;13.486;2023-03-01T15:28:29;5.10;;;2.87;;
9304;SDS011;4690;52.422;13.486;2023-03-01T15:31:22;3.90;;;3.10;;
9304;SDS011;4690;52.422;13.486;2023-03-01T15:33:51;3.00;;;2.70;;
9304;SDS011;4690;52.422;13.486;2023-03-01T15:36:30;4.80;;;2.87;;
9304;SDS011;4690;52.422;13.486;2023-03-01T15:41:58;4.27;;;2.67;;
9304;SDS011;4690;52.422;13.486;2023-03-01T15:46:59;5.03;;;2.63;;
9304;SDS011;4690;52.422;13.486;2023-03-01T15:52:54;3.60;;;2.80;;
9304;SDS011;4690;52.422;13.486;2023-03-01T15:55:06;4.07;;;2.90;;
9304;SDS011;4690;52.422;13.486;2023-03-01T15:57:42;10.37;;;3.10;;
9304;SDS011;4690;52.422;13.486;2023-03-01T16:00:11;4.57;;;2.57;;
9304;SDS011;4690;52.422;13.486;2023-03-01T16:02:40;4.03;;;3.00;;
9304;SDS011;4690;52.422;13.486;2023-03-01T16:05:16;2.93;;;2.43;;
9304;SDS011;4690;52.422;13.486;2023-03-01T16:07:51;4.27;;;2.93;;
9304;SDS011;4690;52.422;13.486;2023-03-01T16:10:18;3.03;;;2.70;;
9304;SDS011;4690;52.422;13.486;2023-03-01T16:12:45;3.87;;;2.90;;
9304;SDS011;4690;52.422;13.486;2023-03-01T16:15:13;5.67;;;5.07;;
9304;SDS011;4690;52.422;13.486;2023-03-01T16:17:44;4.23;;;3.63;;
9304;SDS011;4690;52.422;13.486;2023-03-01T16:20:10;5.30;;;3.83;;
9304;SDS011;4690;52.422;13.486;2023-03-01T16:22:36;4.13;;;2.90;;
9304;SDS011;4690;52.422;13.486;2023-03-01T16:25:01;7.67;;;4.13;;
9304;SDS011;4690;52.422;13.486;2023-03-01T16:27:27;7.00;;;5.80;;
9304;SDS011;4690;52.422;13.486;2023-03-01T16:29:53;8.53;;;5.83;;
9304;SDS011;4690;52.422;13.486;2023-03-01T16:32:19;4.87;;;3.57;;
9304;SDS011;4690;52.422;13.486;2023-03-01T16:34:45;4.93;;;3.33;;
9304;SDS011;4690;52.422;13.486;2023-03-01T16:37:14;3.50;;;3.20;;
9304;SDS011;4690;52.422;13.486;2023-03-01T16:39:41;3.20;;;2.80;;
9304;SDS011;4690;52.422;13.486;2023-03-01T16:42:07;4.40;;;2.90;;
9304;SDS011;4690;52.422;13.486;2023-03-01T16:44:33;3.60;;;2.63;;
9304;SDS011;4690;52.422;13.486;2023-03-01T16:46:59;4.30;;;2.63;;
9304;SDS011;4690;52.422;13.486;2023-03-01T16:49:24;3.37;;;2.50;;
9304;SDS011;4690;52.422;13.486;2023-03-01T16:51:52;3.53;;;2.60;;
9304;SDS011;4690;52.422;13.486;2023-03-01T16:54:19;2.80;;;2.40;;
9304;SDS011;4690;52.422;13.486;2023-03-01T16:56:44;2.60;;;2.40;;
9304;SDS011;4690;52.422;13.486;2023-03-01T16:59:10;3.30;;;2.73;;
9304;SDS011;4690;52.422;13.486;2023-03-01T17:01:36;3.07;;;2.53;;
9304;SDS011;4690;52.422;13.486;2023-03-01T17:04:06;3.43;;;2.90;;
9304;SDS011;4690;52.422;13.486;2023-03-01T17:06:37;3.53;;;2.70;;
9304;SDS011;4690;52.422;13.486;2023-03-01T17:09:03;5.17;;;2.93;;
9304;SDS011;4690;52.422;13.486;2023-03-01T17:11:29;4.93;;;3.40;;
9304;SDS011;4690;52.422;13.486;2023-03-01T17:13:55;3.40;;;3.10;;
9304;SDS011;4690;52.422;13.486;2023-03-01T17:16:21;4.17;;;3.30;;
9304;SDS011;4690;52.422;13.486;2023-03-01T17:18:47;13.27;;;8.00;;
9304;SDS011;4690;52.422;13.486;2023-03-01T17:21:15;17.17;;;10.97;;
9304;SDS011;4690;52.422;13.486;2023-03-01T17:23:42;14.63;;;10.17;;
9304;SDS011;4690;52.422;13.486;2023-03-01T17:26:09;14.83;;;10.47;;
9304;SDS011;4690;52.422;13.486;2023-03-01T17:28:36;12.07;;;8.73;;
9304;SDS011;4690;52.422;13.486;2023-03-01T17:31:03;13.17;;;8.40;;
9304;SDS011;4690;52.422;13.486;2023-03-01T17:33:31;23.03;;;8.93;;